sensor_id;sensor_type;location;lat;lon;timestamp;pressure;altitude;pressure_sealevel;temperature;humidity
69570;BME280;56781;42.292;23.146;2023-06-26T00:00:09;95333.88;;;17.45;100.00
69570;BME280;56781;42.292;23.146;2023-06-26T00:02:38;95323.41;;;17.44;100.00
69570;BME280;56781;42.292;23.146;2023-06-26T00:05:05;95329.50;;;17.41;100.00
69570;BME280;56781;42.292;23.146;2023-06-26T00:07:32;95334.94;;;17.41;100.00
69570;BME280;56781;42.292;23.146;2023-06-26T00:10:02;95343.91;;;17.45;100.00
69570;BME280;56781;42.292;23.146;2023-06-26T00:12:30;95344.59;;;17.42;100.00
69570;BME280;56781;42.292;23.146;2023-06-26T00:14:57;95338.31;;;17.38;100.00
69570;BME280;56781;42.292;23.146;2023-06-26T00:17:25;95349.31;;;17.45;100.00
69570;BME280;56781;42.292;23.146;2023-06-26T00:19:52;95350.81;;;17.42;100.00
69570;BME280;56781;42.292;23.146;2023-06-26T00:22:21;95339.97;;;17.42;100.00
69570;BME280;56781;42.292;23.146;2023-06-26T00:24:48;95318.59;;;17.21;100.00
69570;BME280;56781;42.292;23.146;2023-06-26T00:27:15;95343.03;;;17.41;100.00
69570;BME280;56781;42.292;23.146;2023-06-26T00:29:42;95345.41;;;17.58;100.00
69570;BME280;56781;42.292;23.146;2023-06-26T00:32:09;95337.97;;;17.55;100.00
69570;BME280;56781;42.292;23.146;2023-06-26T00:34:36;95323.84;;;17.46;100.00
69570;BME280;56781;42.292;23.146;2023-06-26T00:37:03;95314.81;;;17.26;100.00
69570;BME280;56781;42.292;23.146;2023-06-26T00:39:31;95344.69;;;17.30;100.00
69570;BME280;56781;42.292;23.146;2023-06-26T00:41:59;95322.69;;;17.31;100.00
69570;BME280;56781;42.292;23.146;2023-06-26T00:44:26;95316.47;;;17.15;100.00
69570;BME280;56781;42.292;23.146;2023-06-26T00:46:53;95322.50;;;17.08;100.00
69570;BME280;56781;42.292;23.146;2023-06-26T00:49:20;95344.28;;;17.15;100.00
69570;BME280;56781;42.292;23.146;2023-06-26T00:51:48;95331.19;;;17.01;100.00
69570;BME280;56781;42.292;23.146;2023-06-26T00:54:15;95339.25;;;17.14;100.00
69570;BME280;56781;42.292;23.146;2023-06-26T00:56:46;95329.00;;;17.07;100.00
69570;BME280;56781;42.292;23.146;2023-06-26T00:59:14;95324.06;;;17.09;100.00
69570;BME280;56781;42.292;23.146;2023-06-26T01:01:42;95325.81;;;17.17;100.00
69570;BME280;56781;42.292;23.146;2023-06-26T01:04:09;95321.34;;;17.09;100.00
69570;BME280;56781;42.292;23.146;2023-06-26T01:06:48;95320.19;;;16.94;100.00
69570;BME280;56781;42.292;23.146;2023-06-26T01:09:18;95320.19;;;16.94;100.00
69570;BME280;56781;42.292;23.146;2023-06-26T01:11:46;95302.09;;;16.82;100.00
69570;BME280;56781;42.292;23.146;2023-06-26T01:14:13;95308.84;;;16.89;100.00
69570;BME280;56781;42.292;23.146;2023-06-26T01:16:41;95306.75;;;16.98;100.00
69570;BME280;56781;42.292;23.146;2023-06-26T01:19:26;95311.22;;;17.06;100.00
69570;BME280;56781;42.292;23.146;2023-06-26T01:22:00;95289.59;;;17.06;100.00
69570;BME280;56781;42.292;23.146;2023-06-26T01:24:35;95305.47;;;17.23;100.00
69570;BME280;56781;42.292;23.146;2023-06-26T01:27:06;95318.94;;;17.36;100.00
69570;BME280;56781;42.292;23.146;2023-06-26T01:29:35;95302.97;;;17.31;100.00
69570;BME280;56781;42.292;23.146;2023-06-26T01:32:03;95323.72;;;17.42;100.00
69570;BME280;56781;42.292;23.146;2023-06-26T01:34:30;95291.16;;;17.07;100.00
69570;BME280;56781;42.292;23.146;2023-06-26T01:36:57;95299.63;;;17.05;100.00
69570;BME280;56781;42.292;23.146;2023-06-26T01:39:24;95299.25;;;17.07;100.00
69570;BME280;56781;42.292;23.146;2023-06-26T01:41:52;95314.13;;;17.13;100.00
69570;BME280;56781;42.292;23.146;2023-06-26T01:44:42;95281.72;;;17.01;100.00
69570;BME280;56781;42.292;23.146;2023-06-26T01:47:14;95291.84;;;17.04;100.00
69570;BME280;56781;42.292;23.146;2023-06-26T01:49:56;95276.81;;;16.91;100.00
69570;BME280;56781;42.292;23.146;2023-06-26T01:52:51;95298.22;;;17.12;100.00
69570;BME280;56781;42.292;23.146;2023-06-26T01:55:55;95313.50;;;17.20;100.00
69570;BME280;56781;42.292;23.146;2023-06-26T01:58:25;95287.31;;;17.08;100.00
69570;BME280;56781;42.292;23.146;2023-06-26T02:00:53;95312.47;;;17.24;100.00
69570;BME280;56781;42.292;23.146;2023-06-26T02:03:20;95304.09;;;17.30;100.00
69570;BME280;56781;42.292;23.146;2023-06-26T02:05:47;95309.53;;;17.30;100.00
69570;BME280;56781;42.292;23.146;2023-06-26T02:08:14;95300.06;;;17.23;100.00
69570;BME280;56781;42.292;23.146;2023-06-26T02:10:45;95307.50;;;17.26;100.00
69570;BME280;56781;42.292;23.146;2023-06-26T02:13:12;95283.03;;;17.07;100.00
69570;BME280;56781;42.292;23.146;2023-06-26T02:15:39;95307.50;;;17.26;100.00
69570;BME280;56781;42.292;23.146;2023-06-26T02:18:06;95300.97;;;17.27;100.00
69570;BME280;56781;42.292;23.146;2023-06-26T02:20:33;95300.97;;;17.27;100.00
69570;BME280;56781;42.292;23.146;2023-06-26T02:23:00;95282.38;;;17.10;100.00
69570;BME280;56781;42.292;23.146;2023-06-26T02:25:27;95275.19;;;17.02;100.00
69570;BME280;56781;42.292;23.146;2023-06-26T02:27:54;95286.53;;;17.08;100.00
69570;BME280;56781;42.292;23.146;2023-06-26T02:30:21;95297.63;;;17.18;100.00
69570;BME280;56781;42.292;23.146;2023-06-26T02:32:49;95307.81;;;17.09;100.00
69570;BME280;56781;42.292;23.146;2023-06-26T02:35:16;95283.97;;;16.99;100.00
69570;BME280;56781;42.292;23.146;2023-06-26T02:37:43;95308.47;;;17.18;100.00
69570;BME280;56781;42.292;23.146;2023-06-26T02:40:11;95290.63;;;17.17;100.00
69570;BME280;56781;42.292;23.146;2023-06-26T02:42:38;95285.94;;;17.14;100.00
69570;BME280;56781;42.292;23.146;2023-06-26T02:45:06;95302.88;;;17.27;100.00
69570;BME280;56781;42.292;23.146;2023-06-26T02:47:33;95305.66;;;17.31;100.00
69570;BME280;56781;42.292;23.146;2023-06-26T02:50:00;95310.31;;;17.30;100.00
69570;BME280;56781;42.292;23.146;2023-06-26T02:52:27;95300.19;;;17.27;100.00
69570;BME280;56781;42.292;23.146;2023-06-26T02:54:56;95308.63;;;17.25;100.00
69570;BME280;56781;42.292;23.146;2023-06-26T02:57:23;95302.44;;;17.25;100.00
69570;BME280;56781;42.292;23.146;2023-06-26T02:59:50;95285.22;;;17.17;100.00
69570;BME280;56781;42.292;23.146;2023-06-26T03:02:17;95299.03;;;17.28;100.00
69570;BME280;56781;42.292;23.146;2023-06-26T03:04:44;95311.97;;;17.35;100.00
69570;BME280;56781;42.292;23.146;2023-06-26T03:07:11;95305.84;;;17.38;100.00
69570;BME280;56781;42.292;23.146;2023-06-26T03:09:38;95279.81;;;17.17;100.00
69570;BME280;56781;42.292;23.146;2023-06-26T03:12:05;95303.16;;;17.38;100.00
69570;BME280;56781;42.292;23.146;2023-06-26T03:14:33;95324.97;;;17.45;100.00
69570;BME280;56781;42.292;23.146;2023-06-26T03:17:00;95296.97;;;17.37;100.00
69570;BME280;56781;42.292;23.146;2023-06-26T03:19:30;95317.72;;;17.49;100.00
69570;BME280;56781;42.292;23.146;2023-06-26T03:21:57;95323.16;;;17.49;100.00
69570;BME280;56781;42.292;23.146;2023-06-26T03:24:24;95301.47;;;17.33;100.00
69570;BME280;56781;42.292;23.146;2023-06-26T03:26:51;95306.31;;;17.40;100.00
69570;BME280;56781;42.292;23.146;2023-06-26T03:29:18;95302.72;;;17.36;100.00
69570;BME280;56781;42.292;23.146;2023-06-26T03:31:45;95294.78;;;17.43;100.00
69570;BME280;56781;42.292;23.146;2023-06-26T03:34:12;95322.19;;;17.57;100.00
69570;BME280;56781;42.292;23.146;2023-06-26T03:36:39;95314.84;;;17.58;100.00
69570;BME280;56781;42.292;23.146;2023-06-26T03:39:07;95299.94;;;17.48;100.00
69570;BME280;56781;42.292;23.146;2023-06-26T03:41:34;95298.78;;;17.49;100.00
69570;BME280;56781;42.292;23.146;2023-06-26T03:44:01;95326.44;;;17.58;100.00
69570;BME280;56781;42.292;23.146;2023-06-26T03:46:28;95309.25;;;17.50;100.00
69570;BME280;56781;42.292;23.146;2023-06-26T03:48:55;95304.47;;;17.44;100.00
69570;BME280;56781;42.292;23.146;2023-06-26T03:51:23;95314.78;;;17.54;100.00
69570;BME280;56781;42.292;23.146;2023-06-26T03:53:50;95316.06;;;17.44;100.00
69570;BME280;56781;42.292;23.146;2023-06-26T03:56:17;95334.41;;;17.51;100.00
69570;BME280;56781;42.292;23.146;2023-06-26T03:58:44;95333.72;;;17.54;100.00
69570;BME280;56781;42.292;23.146;2023-06-26T04:01:11;95331.88;;;17.58;100.00
69570;BME280;56781;42.292;23.146;2023-06-26T04:03:38;95334.75;;;17.65;100.00
69570;BME280;56781;42.292;23.146;2023-06-26T04:06:06;95342.19;;;17.68;100.00
69570;BME280;56781;42.292;23.146;2023-06-26T04:08:33;95337.31;;;17.90;100.00
69570;BME280;56781;42.292;23.146;2023-06-26T04:11:00;95343.16;;;17.92;100.00
69570;BME280;56781;42.292;23.146;2023-06-26T04:13:27;95345.94;;;17.96;100.00
69570;BME280;56781;42.292;23.146;2023-06-26T04:15:54;95346.91;;;18.03;100.00
69570;BME280;56781;42.292;23.146;2023-06-26T04:18:21;95337.97;;;18.19;100.00
69570;BME280;56781;42.292;23.146;2023-06-26T04:21:11;95342.75;;;18.25;100.00
69570;BME280;56781;42.292;23.146;2023-06-26T04:23:39;95320.78;;;18.11;100.00
69570;BME280;56781;42.292;23.146;2023-06-26T04:26:07;95341.09;;;18.21;100.00
69570;BME280;56781;42.292;23.146;2023-06-26T04:28:35;95339.72;;;18.27;100.00
69570;BME280;56781;42.292;23.146;2023-06-26T04:31:02;95331.56;;;18.27;100.00
69570;BME280;56781;42.292;23.146;2023-06-26T04:33:32;95343.28;;;18.50;100.00
69570;BME280;56781;42.292;23.146;2023-06-26T04:35:59;95349.38;;;18.63;100.00
69570;BME280;56781;42.292;23.146;2023-06-26T04:38:34;95337.88;;;18.70;100.00
69570;BME280;56781;42.292;23.146;2023-06-26T04:41:01;95336.63;;;18.83;100.00
69570;BME280;56781;42.292;23.146;2023-06-26T04:43:29;95328.28;;;18.92;100.00
69570;BME280;56781;42.292;23.146;2023-06-26T04:45:56;95337.34;;;18.99;100.00
69570;BME280;56781;42.292;23.146;2023-06-26T04:48:23;95343.75;;;19.11;100.00
69570;BME280;56781;42.292;23.146;2023-06-26T04:50:50;95358.25;;;19.18;100.00
69570;BME280;56781;42.292;23.146;2023-06-26T04:53:21;95332.19;;;18.94;100.00
69570;BME280;56781;42.292;23.146;2023-06-26T04:55:50;95332.19;;;18.94;100.00
69570;BME280;56781;42.292;23.146;2023-06-26T04:58:18;95353.19;;;19.17;100.00
69570;BME280;56781;42.292;23.146;2023-06-26T05:00:46;95353.75;;;19.26;100.00
69570;BME280;56781;42.292;23.146;2023-06-26T05:03:14;95338.47;;;19.18;100.00
69570;BME280;56781;42.292;23.146;2023-06-26T05:05:42;95360.22;;;19.41;100.00
69570;BME280;56781;42.292;23.146;2023-06-26T05:08:25;95343.47;;;19.35;100.00
69570;BME280;56781;42.292;23.146;2023-06-26T05:10:55;95356.41;;;19.45;100.00
69570;BME280;56781;42.292;23.146;2023-06-26T05:13:25;95336.50;;;19.38;100.00
69570;BME280;56781;42.292;23.146;2023-06-26T05:15:52;95360.78;;;19.50;100.00
69570;BME280;56781;42.292;23.146;2023-06-26T05:18:20;95371.28;;;19.52;100.00
69570;BME280;56781;42.292;23.146;2023-06-26T05:20:47;95361.97;;;19.53;100.00
69570;BME280;56781;42.292;23.146;2023-06-26T05:23:15;95359.41;;;19.60;100.00
69570;BME280;56781;42.292;23.146;2023-06-26T05:25:43;95361.97;;;19.72;100.00
69570;BME280;56781;42.292;23.146;2023-06-26T05:28:10;95352.66;;;19.73;100.00
69570;BME280;56781;42.292;23.146;2023-06-26T05:30:39;95349.75;;;19.85;100.00
69570;BME280;56781;42.292;23.146;2023-06-26T05:33:09;95364.00;;;20.02;100.00
69570;BME280;56781;42.292;23.146;2023-06-26T05:35:37;95341.94;;;20.07;100.00
69570;BME280;56781;42.292;23.146;2023-06-26T05:38:05;95340.06;;;20.64;100.00
69570;BME280;56781;42.292;23.146;2023-06-26T05:40:32;95348.66;;;21.34;100.00
69570;BME280;56781;42.292;23.146;2023-06-26T05:56:00;95318.84;;;21.14;100.00
69570;BME280;56781;42.292;23.146;2023-06-26T05:58:28;95348.06;;;20.84;100.00
69570;BME280;56781;42.292;23.146;2023-06-26T06:00:55;95336.16;;;20.65;100.00
69570;BME280;56781;42.292;23.146;2023-06-26T06:03:22;95356.88;;;20.73;100.00
69570;BME280;56781;42.292;23.146;2023-06-26T06:05:49;95355.78;;;20.78;100.00
69570;BME280;56781;42.292;23.146;2023-06-26T06:08:16;95338.66;;;20.77;100.00
69570;BME280;56781;42.292;23.146;2023-06-26T06:10:43;95339.59;;;20.89;100.00
69570;BME280;56781;42.292;23.146;2023-06-26T06:13:10;95363.69;;;21.20;100.00
69570;BME280;56781;42.292;23.146;2023-06-26T06:15:37;95351.06;;;21.39;100.00
69570;BME280;56781;42.292;23.146;2023-06-26T06:18:04;95337.75;;;21.34;100.00
69570;BME280;56781;42.292;23.146;2023-06-26T06:20:31;95332.56;;;21.21;100.00
69570;BME280;56781;42.292;23.146;2023-06-26T06:22:59;95351.97;;;21.50;99.61
69570;BME280;56781;42.292;23.146;2023-06-26T06:25:26;95360.78;;;21.77;100.00
69570;BME280;56781;42.292;23.146;2023-06-26T06:27:53;95336.72;;;21.90;99.97
69570;BME280;56781;42.292;23.146;2023-06-26T06:30:20;95352.28;;;21.86;100.00
69570;BME280;56781;42.292;23.146;2023-06-26T06:33:07;95334.19;;;21.63;100.00
69570;BME280;56781;42.292;23.146;2023-06-26T06:35:34;95355.22;;;21.66;99.68
69570;BME280;56781;42.292;23.146;2023-06-26T06:38:01;95337.97;;;21.96;97.15
69570;BME280;56781;42.292;23.146;2023-06-26T06:40:28;95359.78;;;22.51;94.51
69570;BME280;56781;42.292;23.146;2023-06-26T06:42:55;95351.94;;;22.43;94.88
69570;BME280;56781;42.292;23.146;2023-06-26T06:45:22;95316.31;;;22.94;92.29
69570;BME280;56781;42.292;23.146;2023-06-26T06:47:49;95350.09;;;23.70;91.31
69570;BME280;56781;42.292;23.146;2023-06-26T06:50:16;95331.72;;;23.60;89.64
69570;BME280;56781;42.292;23.146;2023-06-26T06:52:45;95350.22;;;22.93;92.95
69570;BME280;56781;42.292;23.146;2023-06-26T06:55:12;95331.47;;;22.81;91.01
69570;BME280;56781;42.292;23.146;2023-06-26T06:57:39;95338.13;;;22.80;96.34
69570;BME280;56781;42.292;23.146;2023-06-26T07:00:11;95342.94;;;22.35;93.43
69570;BME280;56781;42.292;23.146;2023-06-26T07:02:40;95341.66;;;22.18;94.12
69570;BME280;56781;42.292;23.146;2023-06-26T07:05:07;95339.00;;;21.81;95.84
69570;BME280;56781;42.292;23.146;2023-06-26T07:07:35;95337.16;;;21.51;99.80
69570;BME280;56781;42.292;23.146;2023-06-26T07:10:05;95328.66;;;21.56;96.42
69570;BME280;56781;42.292;23.146;2023-06-26T07:12:32;95352.53;;;21.74;95.20
69570;BME280;56781;42.292;23.146;2023-06-26T07:15:01;95334.34;;;21.85;96.86
69570;BME280;56781;42.292;23.146;2023-06-26T07:17:28;95343.75;;;21.91;94.73
69570;BME280;56781;42.292;23.146;2023-06-26T07:19:55;95353.34;;;22.22;94.14
69570;BME280;56781;42.292;23.146;2023-06-26T07:22:23;95335.56;;;22.43;92.29
69570;BME280;56781;42.292;23.146;2023-06-26T07:24:50;95345.00;;;22.60;93.91
69570;BME280;56781;42.292;23.146;2023-06-26T07:27:17;95347.13;;;22.91;90.06
69570;BME280;56781;42.292;23.146;2023-06-26T07:29:45;95331.66;;;23.31;85.46
69570;BME280;56781;42.292;23.146;2023-06-26T07:32:12;95339.13;;;23.49;85.50
69570;BME280;56781;42.292;23.146;2023-06-26T07:34:41;95329.03;;;23.88;87.31
69570;BME280;56781;42.292;23.146;2023-06-26T07:37:08;95319.09;;;24.95;82.16
69570;BME280;56781;42.292;23.146;2023-06-26T07:39:35;95344.19;;;25.63;80.17
69570;BME280;56781;42.292;23.146;2023-06-26T07:42:02;95333.50;;;25.06;81.13
69570;BME280;56781;42.292;23.146;2023-06-26T07:44:29;95336.66;;;25.01;81.95
69570;BME280;56781;42.292;23.146;2023-06-26T07:46:56;95328.78;;;25.10;79.53
69570;BME280;56781;42.292;23.146;2023-06-26T07:49:23;95341.41;;;24.86;79.57
69570;BME280;56781;42.292;23.146;2023-06-26T07:51:50;95340.81;;;25.38;80.12
69570;BME280;56781;42.292;23.146;2023-06-26T07:54:17;95335.00;;;26.37;79.77
69570;BME280;56781;42.292;23.146;2023-06-26T07:56:59;95334.06;;;25.53;78.85
69570;BME280;56781;42.292;23.146;2023-06-26T07:59:27;95313.22;;;25.67;75.80
69570;BME280;56781;42.292;23.146;2023-06-26T08:01:56;95304.50;;;26.27;77.32
69570;BME280;56781;42.292;23.146;2023-06-26T08:04:26;95323.06;;;26.54;73.05
69570;BME280;56781;42.292;23.146;2023-06-26T08:06:55;95328.16;;;26.11;78.44
69570;BME280;56781;42.292;23.146;2023-06-26T08:09:25;95315.47;;;25.19;80.52
69570;BME280;56781;42.292;23.146;2023-06-26T08:11:52;95334.19;;;25.32;77.04
69570;BME280;56781;42.292;23.146;2023-06-26T08:14:20;95323.41;;;24.85;80.84
69570;BME280;56781;42.292;23.146;2023-06-26T08:16:47;95327.03;;;24.28;84.47
69570;BME280;56781;42.292;23.146;2023-06-26T08:19:15;95319.66;;;23.93;87.15
69570;BME280;56781;42.292;23.146;2023-06-26T08:21:43;95339.59;;;23.76;90.22
69570;BME280;56781;42.292;23.146;2023-06-26T08:24:11;95329.00;;;23.71;88.89
69570;BME280;56781;42.292;23.146;2023-06-26T08:26:40;95332.88;;;23.44;87.92
69570;BME280;56781;42.292;23.146;2023-06-26T08:29:07;95328.53;;;23.26;84.99
69570;BME280;56781;42.292;23.146;2023-06-26T08:31:39;95331.19;;;23.04;87.83
69570;BME280;56781;42.292;23.146;2023-06-26T08:34:07;95342.88;;;22.97;85.59
69570;BME280;56781;42.292;23.146;2023-06-26T08:36:34;95334.56;;;22.79;90.04
69570;BME280;56781;42.292;23.146;2023-06-26T08:39:02;95327.56;;;22.75;85.94
69570;BME280;56781;42.292;23.146;2023-06-26T08:41:29;95307.69;;;22.85;90.18
69570;BME280;56781;42.292;23.146;2023-06-26T08:43:56;95326.66;;;23.69;83.24
69570;BME280;56781;42.292;23.146;2023-06-26T08:46:24;95325.88;;;23.65;82.79
69570;BME280;56781;42.292;23.146;2023-06-26T08:48:55;95323.09;;;23.29;84.00
69570;BME280;56781;42.292;23.146;2023-06-26T08:51:24;95335.13;;;23.14;85.61
69570;BME280;56781;42.292;23.146;2023-06-26T08:54:02;95343.56;;;22.80;88.64
69570;BME280;56781;42.292;23.146;2023-06-26T08:56:35;95333.22;;;22.41;89.34
69570;BME280;56781;42.292;23.146;2023-06-26T08:59:05;95344.59;;;22.54;90.75
69570;BME280;56781;42.292;23.146;2023-06-26T09:01:32;95333.38;;;22.73;91.04
69570;BME280;56781;42.292;23.146;2023-06-26T09:04:00;95346.44;;;23.05;91.19
69570;BME280;56781;42.292;23.146;2023-06-26T09:06:27;95333.94;;;23.08;84.72
69570;BME280;56781;42.292;23.146;2023-06-26T09:08:55;95339.53;;;23.61;85.60
69570;BME280;56781;42.292;23.146;2023-06-26T09:11:22;95337.63;;;24.23;79.91
69570;BME280;56781;42.292;23.146;2023-06-26T09:13:49;95302.31;;;24.79;74.86
69570;BME280;56781;42.292;23.146;2023-06-26T09:16:16;95313.75;;;25.47;75.99
69570;BME280;56781;42.292;23.146;2023-06-26T09:18:45;95293.38;;;25.45;76.71
69570;BME280;56781;42.292;23.146;2023-06-26T09:21:13;95312.13;;;25.53;75.38
69570;BME280;56781;42.292;23.146;2023-06-26T09:23:41;95317.72;;;25.35;78.98
69570;BME280;56781;42.292;23.146;2023-06-26T09:26:08;95317.00;;;25.24;76.92
69570;BME280;56781;42.292;23.146;2023-06-26T09:28:35;95312.72;;;25.16;78.21
69570;BME280;56781;42.292;23.146;2023-06-26T09:31:04;95310.03;;;25.02;74.27
69570;BME280;56781;42.292;23.146;2023-06-26T09:33:35;95328.88;;;24.89;75.64
69570;BME280;56781;42.292;23.146;2023-06-26T09:36:09;95330.88;;;24.74;80.09
69570;BME280;56781;42.292;23.146;2023-06-26T09:38:45;95333.66;;;24.70;77.92
69570;BME280;56781;42.292;23.146;2023-06-26T09:41:16;95331.31;;;24.62;77.64
69570;BME280;56781;42.292;23.146;2023-06-26T09:43:48;95311.69;;;24.85;77.21
69570;BME280;56781;42.292;23.146;2023-06-26T09:46:25;95326.53;;;24.87;72.08
69570;BME280;56781;42.292;23.146;2023-06-26T09:49:04;95321.81;;;24.91;77.26
69570;BME280;56781;42.292;23.146;2023-06-26T09:51:34;95320.88;;;25.34;77.44
69570;BME280;56781;42.292;23.146;2023-06-26T09:54:03;95305.50;;;25.47;72.50
69570;BME280;56781;42.292;23.146;2023-06-26T09:56:31;95291.84;;;25.40;72.54
69570;BME280;56781;42.292;23.146;2023-06-26T09:59:00;95316.50;;;25.40;74.90
69570;BME280;56781;42.292;23.146;2023-06-26T10:01:31;95313.44;;;25.31;76.23
69570;BME280;56781;42.292;23.146;2023-06-26T10:03:59;95313.91;;;25.11;74.85
69570;BME280;56781;42.292;23.146;2023-06-26T10:06:31;95299.03;;;25.12;73.26
69570;BME280;56781;42.292;23.146;2023-06-26T10:09:01;95304.38;;;25.37;73.29
69570;BME280;56781;42.292;23.146;2023-06-26T10:12:02;95295.31;;;25.48;72.56
69570;BME280;56781;42.292;23.146;2023-06-26T10:14:37;95298.84;;;25.52;74.34
69570;BME280;56781;42.292;23.146;2023-06-26T10:17:07;95305.56;;;25.40;73.39
69570;BME280;56781;42.292;23.146;2023-06-26T10:19:37;95301.03;;;25.08;76.58
69570;BME280;56781;42.292;23.146;2023-06-26T10:22:05;95292.97;;;24.69;78.13
69570;BME280;56781;42.292;23.146;2023-06-26T10:24:34;95300.47;;;24.47;77.93
69570;BME280;56781;42.292;23.146;2023-06-26T10:27:17;95283.59;;;24.66;76.35
69570;BME280;56781;42.292;23.146;2023-06-26T10:29:48;95289.25;;;25.08;75.59
69570;BME280;56781;42.292;23.146;2023-06-26T10:32:18;95272.66;;;25.40;72.66
69570;BME280;56781;42.292;23.146;2023-06-26T10:34:46;95271.91;;;25.32;73.19
69570;BME280;56781;42.292;23.146;2023-06-26T10:37:13;95298.25;;;25.12;72.74
69570;BME280;56781;42.292;23.146;2023-06-26T10:39:59;95298.50;;;24.47;73.38
69570;BME280;56781;42.292;23.146;2023-06-26T10:42:37;95292.28;;;24.25;73.32
69570;BME280;56781;42.292;23.146;2023-06-26T10:45:20;95297.00;;;24.14;76.81
69570;BME280;56781;42.292;23.146;2023-06-26T10:47:51;95291.16;;;23.87;85.17
69570;BME280;56781;42.292;23.146;2023-06-26T10:50:27;95287.56;;;23.36;90.04
69570;BME280;56781;42.292;23.146;2023-06-26T10:53:11;95304.34;;;23.31;90.88
69570;BME280;56781;42.292;23.146;2023-06-26T10:55:42;95285.19;;;23.17;91.44
69570;BME280;56781;42.292;23.146;2023-06-26T11:03:45;95275.09;;;23.32;92.60
69570;BME280;56781;42.292;23.146;2023-06-26T11:06:18;95292.28;;;23.50;89.98
69570;BME280;56781;42.292;23.146;2023-06-26T11:11:16;95285.28;;;23.56;91.62
69570;BME280;56781;42.292;23.146;2023-06-26T11:13:45;95275.09;;;23.35;92.29
69570;BME280;56781;42.292;23.146;2023-06-26T11:16:14;95267.28;;;23.41;92.93
69570;BME280;56781;42.292;23.146;2023-06-26T11:18:42;95277.06;;;23.49;93.54
69570;BME280;56781;42.292;23.146;2023-06-26T11:21:10;95284.50;;;23.70;97.04
69570;BME280;56781;42.292;23.146;2023-06-26T11:23:40;95270.44;;;23.43;95.75
69570;BME280;56781;42.292;23.146;2023-06-26T11:26:18;95284.06;;;23.32;96.84
69570;BME280;56781;42.292;23.146;2023-06-26T11:28:53;95277.84;;;23.42;96.84
69570;BME280;56781;42.292;23.146;2023-06-26T11:31:35;95277.06;;;23.63;93.57
69570;BME280;56781;42.292;23.146;2023-06-26T11:34:09;95261.06;;;23.80;90.06
69570;BME280;56781;42.292;23.146;2023-06-26T11:36:39;95264.97;;;24.00;87.24
69570;BME280;56781;42.292;23.146;2023-06-26T11:39:09;95275.88;;;24.22;89.38
69570;BME280;56781;42.292;23.146;2023-06-26T11:41:38;95271.91;;;24.48;92.90
69570;BME280;56781;42.292;23.146;2023-06-26T11:44:10;95260.19;;;24.54;91.60
69570;BME280;56781;42.292;23.146;2023-06-26T11:46:37;95266.44;;;24.48;88.19
69570;BME280;56781;42.292;23.146;2023-06-26T11:49:06;95261.25;;;24.75;85.92
69570;BME280;56781;42.292;23.146;2023-06-26T11:51:34;95268.91;;;25.12;84.83
69570;BME280;56781;42.292;23.146;2023-06-26T11:54:04;95252.06;;;25.10;84.55
69570;BME280;56781;42.292;23.146;2023-06-26T11:56:32;95250.38;;;25.34;82.41
69570;BME280;56781;42.292;23.146;2023-06-26T11:59:05;95267.81;;;25.62;78.75
69570;BME280;56781;42.292;23.146;2023-06-26T12:01:42;95261.06;;;25.74;75.85
69570;BME280;56781;42.292;23.146;2023-06-26T12:04:15;95247.19;;;25.95;75.83
69570;BME280;56781;42.292;23.146;2023-06-26T12:06:46;95240.34;;;26.14;70.94
69570;BME280;56781;42.292;23.146;2023-06-26T12:09:16;95249.47;;;26.38;73.98
69570;BME280;56781;42.292;23.146;2023-06-26T12:11:47;95264.78;;;26.39;75.75
69570;BME280;56781;42.292;23.146;2023-06-26T12:14:19;95246.28;;;26.43;75.50
69570;BME280;56781;42.292;23.146;2023-06-26T12:16:47;95252.69;;;26.71;80.00
69570;BME280;56781;42.292;23.146;2023-06-26T12:19:14;95249.56;;;26.69;71.74
69570;BME280;56781;42.292;23.146;2023-06-26T12:24:12;95248.59;;;26.83;71.18
69570;BME280;56781;42.292;23.146;2023-06-26T12:26:46;95251.56;;;26.27;69.51
69570;BME280;56781;42.292;23.146;2023-06-26T12:29:15;95243.91;;;26.45;70.48
69570;BME280;56781;42.292;23.146;2023-06-26T12:31:53;95218.78;;;25.71;65.54
69570;BME280;56781;42.292;23.146;2023-06-26T12:34:25;95233.88;;;25.45;74.93
69570;BME280;56781;42.292;23.146;2023-06-26T12:36:52;95219.19;;;25.14;72.17
69570;BME280;56781;42.292;23.146;2023-06-26T12:39:20;95242.16;;;25.83;70.35
69570;BME280;56781;42.292;23.146;2023-06-26T12:41:51;95235.16;;;25.78;69.06
69570;BME280;56781;42.292;23.146;2023-06-26T12:44:25;95229.16;;;26.36;66.02
69570;BME280;56781;42.292;23.146;2023-06-26T12:47:02;95221.31;;;26.34;65.15
69570;BME280;56781;42.292;23.146;2023-06-26T12:49:36;95233.63;;;26.57;70.83
69570;BME280;56781;42.292;23.146;2023-06-26T12:52:08;95234.66;;;26.97;66.77
69570;BME280;56781;42.292;23.146;2023-06-26T12:54:38;95222.88;;;27.27;68.62
69570;BME280;56781;42.292;23.146;2023-06-26T12:57:05;95241.81;;;27.49;65.15
69570;BME280;56781;42.292;23.146;2023-06-26T12:59:34;95232.91;;;27.10;61.06
69570;BME280;56781;42.292;23.146;2023-06-26T13:02:01;95225.97;;;27.02;64.46
69570;BME280;56781;42.292;23.146;2023-06-26T13:04:29;95228.47;;;26.93;63.31
69570;BME280;56781;42.292;23.146;2023-06-26T13:06:57;95221.50;;;26.50;67.79
69570;BME280;56781;42.292;23.146;2023-06-26T13:09:25;95212.38;;;26.26;66.18
69570;BME280;56781;42.292;23.146;2023-06-26T13:11:53;95223.41;;;26.23;65.64
69570;BME280;56781;42.292;23.146;2023-06-26T13:14:20;95229.25;;;25.83;64.51
69570;BME280;56781;42.292;23.146;2023-06-26T13:16:47;95237.97;;;25.71;68.27
69570;BME280;56781;42.292;23.146;2023-06-26T13:19:15;95235.88;;;25.41;71.84